createdAt,value
2022-10-28T00:00:11.994Z,17.27
2022-10-28T00:01:44.739Z,15.77
2022-10-28T00:03:17.565Z,14.90
2022-10-28T00:04:50.297Z,14.90
2022-10-28T00:06:24.904Z,14.03
2022-10-28T00:07:57.877Z,14.23
2022-10-28T00:09:30.805Z,18.23
2022-10-28T00:11:04.945Z,16.57
2022-10-28T00:12:39.581Z,17.23
2022-10-28T00:14:13.512Z,17.80
2022-10-28T00:15:46.228Z,17.43
2022-10-28T00:17:18.979Z,16.90
2022-10-28T00:18:53.998Z,17.73
2022-10-28T00:20:26.845Z,18.30
2022-10-28T00:21:59.572Z,19.20
2022-10-28T00:23:32.629Z,20.00
2022-10-28T00:25:05.769Z,19.83
2022-10-28T00:26:42.147Z,20.70
2022-10-28T00:28:15.228Z,21.87
2022-10-28T00:29:48.475Z,22.23
2022-10-28T00:31:23.120Z,21.80
2022-10-28T00:32:55.986Z,21.33
2022-10-28T00:34:27.968Z,19.67
2022-10-28T00:36:09.723Z,20.73
2022-10-28T00:37:42.498Z,18.27
2022-10-28T00:39:17.299Z,17.90
2022-10-28T00:40:49.080Z,19.60
2022-10-28T00:42:23.179Z,19.17
2022-10-28T00:43:58.050Z,20.47
2022-10-28T00:45:30.806Z,21.50
2022-10-28T00:47:04.397Z,21.90
2022-10-28T00:48:41.209Z,19.93
2022-10-28T00:50:21.090Z,22.50
2022-10-28T00:51:57.000Z,19.40
2022-10-28T00:53:31.438Z,20.60
2022-10-28T00:55:04.763Z,19.60
2022-10-28T00:56:40.477Z,19.57
2022-10-28T00:58:12.736Z,20.47
2022-10-28T00:59:50.579Z,17.43
2022-10-28T01:01:23.636Z,17.27
2022-10-28T01:02:56.373Z,20.23
2022-10-28T01:04:29.391Z,19.57
2022-10-28T01:06:02.569Z,18.40
2022-10-28T01:07:34.632Z,20.17
2022-10-28T01:09:07.353Z,17.33
2022-10-28T01:10:53.390Z,18.57
2022-10-28T01:12:34.277Z,20.63
2022-10-28T01:14:19.046Z,20.93
2022-10-28T01:15:59.559Z,20.23
2022-10-28T01:17:44.139Z,17.80
2022-10-28T01:19:52.163Z,19.10
2022-10-28T01:22:07.873Z,17.93
2022-10-28T01:23:52.203Z,14.93
2022-10-28T01:26:00.529Z,16.77
2022-10-28T01:28:09.891Z,16.03
2022-10-28T01:30:04.509Z,15.33
2022-10-28T01:31:41.477Z,15.20
2022-10-28T01:33:21.253Z,15.57
2022-10-28T01:34:58.579Z,15.33
2022-10-28T01:36:38.873Z,16.87
2022-10-28T01:38:22.595Z,16.77
2022-10-28T01:40:00.797Z,15.27
2022-10-28T01:41:37.779Z,17.37
2022-10-28T01:43:14.291Z,17.87
2022-10-28T01:44:51.560Z,16.83
2022-10-28T01:46:29.369Z,18.10
2022-10-28T01:48:07.208Z,16.90
2022-10-28T01:49:45.349Z,14.13
2022-10-28T01:51:23.652Z,15.43
2022-10-28T01:53:00.192Z,13.50
2022-10-28T01:54:34.938Z,13.53
2022-10-28T01:56:11.555Z,13.77
2022-10-28T01:57:45.035Z,13.03
2022-10-28T01:59:22.954Z,12.83
2022-10-28T02:00:56.848Z,12.40
2022-10-28T02:02:33.612Z,11.57
2022-10-28T02:04:06.944Z,13.40
2022-10-28T02:05:43.155Z,13.30
2022-10-28T02:07:17.344Z,12.67
2022-10-28T02:08:59.361Z,12.00
2022-10-28T02:10:40.274Z,13.63
2022-10-28T02:12:23.078Z,13.40
2022-10-28T02:14:07.405Z,13.17
2022-10-28T02:15:47.804Z,14.20
2022-10-28T02:17:27.369Z,13.60
2022-10-28T02:19:06.195Z,14.87
2022-10-28T02:20:48.674Z,15.10
2022-10-28T02:22:25.424Z,14.33
2022-10-28T02:24:05.733Z,15.27
2022-10-28T02:25:46.836Z,13.77
2022-10-28T02:27:26.225Z,13.20
2022-10-28T02:29:07.306Z,13.37
2022-10-28T02:30:47.934Z,13.60
2022-10-28T02:32:23.789Z,12.60
2022-10-28T02:34:02.186Z,13.60
2022-10-28T02:35:38.632Z,11.73
2022-10-28T02:37:18.127Z,12.37
2022-10-28T02:38:53.546Z,12.97
2022-10-28T02:40:29.663Z,13.80
2022-10-28T02:42:05.523Z,13.77
2022-10-28T02:43:39.989Z,13.73
2022-10-28T02:45:15.633Z,13.40
2022-10-28T02:46:50.933Z,12.87
2022-10-28T02:48:29.833Z,13.57
2022-10-28T02:50:04.701Z,13.60
2022-10-28T02:51:41.409Z,13.03
2022-10-28T02:53:19.212Z,13.27
2022-10-28T02:54:55.829Z,13.97
2022-10-28T02:56:30.841Z,13.63
2022-10-28T02:58:02.834Z,13.03
2022-10-28T02:59:35.730Z,13.57
2022-10-28T03:01:08.056Z,13.73
2022-10-28T03:02:40.849Z,12.57
2022-10-28T03:04:13.561Z,13.07
2022-10-28T03:05:46.412Z,12.93
2022-10-28T03:07:19.353Z,13.23
2022-10-28T03:08:53.729Z,11.70
2022-10-28T03:10:26.527Z,12.63
2022-10-28T03:11:59.299Z,14.10
2022-10-28T03:13:32.020Z,13.07
2022-10-28T03:15:05.228Z,12.63
2022-10-28T03:16:37.010Z,12.60
2022-10-28T03:18:09.750Z,13.73
2022-10-28T03:19:42.493Z,13.03
2022-10-28T03:21:14.252Z,14.30
2022-10-28T03:22:47.424Z,13.60
2022-10-28T03:24:21.580Z,12.13
2022-10-28T03:25:54.327Z,11.83
2022-10-28T03:27:27.044Z,13.87
2022-10-28T03:28:59.769Z,13.73
2022-10-28T03:30:32.488Z,13.73
2022-10-28T03:32:05.658Z,13.47
2022-10-28T03:33:38.364Z,14.03
2022-10-28T03:35:11.585Z,12.77
2022-10-28T03:36:44.337Z,14.00
2022-10-28T03:38:17.081Z,13.50
2022-10-28T03:39:51.141Z,13.40
2022-10-28T03:41:22.879Z,11.93
2022-10-28T03:42:56.133Z,12.50
2022-10-28T03:44:29.073Z,11.90
2022-10-28T03:46:01.800Z,11.23
2022-10-28T03:47:35.394Z,11.30
2022-10-28T03:49:08.098Z,12.03
2022-10-28T03:50:40.809Z,13.27
2022-10-28T03:52:13.542Z,12.53
2022-10-28T03:53:46.251Z,11.47
2022-10-28T03:55:20.288Z,11.60
2022-10-28T03:56:53.011Z,11.30
2022-10-28T03:58:25.712Z,12.00
2022-10-28T03:59:58.449Z,10.40
2022-10-28T04:01:31.268Z,11.33
2022-10-28T04:03:04.096Z,13.27
2022-10-28T04:04:36.861Z,13.47
2022-10-28T04:06:10.065Z,12.53
2022-10-28T04:07:42.797Z,11.77
2022-10-28T04:09:15.501Z,12.00
2022-10-28T04:10:50.024Z,11.90
2022-10-28T04:12:22.761Z,9.77
2022-10-28T04:13:55.463Z,10.80
2022-10-28T04:15:28.477Z,12.07
2022-10-28T04:17:00.247Z,12.47
2022-10-28T04:18:33.057Z,11.67
2022-10-28T04:20:06.682Z,11.47
2022-10-28T04:21:39.412Z,11.53
2022-10-28T04:23:15.963Z,12.20
2022-10-28T04:24:48.680Z,11.37
2022-10-28T04:26:22.733Z,12.30
2022-10-28T04:27:56.134Z,11.23
2022-10-28T04:29:29.136Z,12.20
2022-10-28T04:31:02.597Z,11.73
2022-10-28T04:32:35.322Z,11.77
2022-10-28T04:34:08.048Z,12.73
2022-10-28T04:35:42.782Z,13.17
2022-10-28T04:37:20.367Z,12.70
2022-10-28T04:38:53.216Z,13.33
2022-10-28T04:40:25.909Z,14.27
2022-10-28T04:42:00.008Z,13.40
2022-10-28T04:43:32.729Z,13.90
2022-10-28T04:45:06.161Z,13.00
2022-10-28T04:46:38.916Z,13.73
2022-10-28T04:48:11.646Z,13.90
2022-10-28T04:49:44.364Z,13.93
2022-10-28T04:51:17.050Z,13.73
2022-10-28T04:52:49.768Z,14.40
2022-10-28T04:54:22.512Z,12.53
2022-10-28T04:55:58.025Z,12.07
2022-10-28T04:57:32.315Z,11.60
2022-10-28T04:59:05.170Z,11.20
2022-10-28T05:00:36.923Z,12.27
2022-10-28T05:02:09.742Z,11.40
2022-10-28T05:03:42.565Z,11.40
2022-10-28T05:05:14.556Z,11.20
2022-10-28T05:06:47.329Z,11.83
2022-10-28T05:08:20.033Z,12.70
2022-10-28T05:09:52.747Z,11.37
2022-10-28T05:11:25.689Z,10.73
2022-10-28T05:12:59.734Z,11.87
2022-10-28T05:14:32.472Z,13.10
2022-10-28T05:16:05.561Z,13.00
2022-10-28T05:17:39.620Z,13.43
2022-10-28T05:19:12.355Z,12.50
2022-10-28T05:20:45.524Z,10.93
2022-10-28T05:22:18.368Z,9.50
2022-10-28T05:23:51.085Z,8.87
2022-10-28T05:25:24.389Z,8.50
2022-10-28T05:26:56.140Z,8.10
2022-10-28T05:28:30.220Z,7.77
2022-10-28T05:30:02.956Z,7.90
2022-10-28T05:31:35.688Z,7.87
2022-10-28T05:33:07.444Z,8.27
2022-10-28T05:34:40.153Z,9.60
2022-10-28T05:36:12.951Z,9.97
2022-10-28T05:37:45.661Z,10.90
2022-10-28T05:39:18.577Z,11.37
2022-10-28T05:40:51.289Z,12.73
2022-10-28T05:42:24.023Z,14.90
2022-10-28T05:43:58.072Z,14.50
2022-10-28T05:45:31.154Z,12.93
2022-10-28T05:47:03.869Z,13.27
2022-10-28T05:48:36.560Z,12.53
2022-10-28T05:50:10.034Z,12.13
2022-10-28T05:51:42.741Z,12.47
2022-10-28T05:53:15.598Z,11.13
2022-10-28T05:54:48.316Z,10.67
2022-10-28T05:56:21.400Z,11.07
2022-10-28T05:57:54.335Z,9.73
2022-10-28T05:59:28.676Z,10.40
2022-10-28T06:01:01.390Z,10.33
2022-10-28T06:02:34.116Z,9.30
2022-10-28T06:04:07.057Z,9.33
2022-10-28T06:05:42.895Z,9.33
2022-10-28T06:07:15.612Z,9.53
2022-10-28T06:08:48.303Z,9.30
2022-10-28T06:10:21.023Z,8.43
2022-10-28T06:11:52.193Z,9.40
2022-10-28T06:13:25.517Z,8.63
2022-10-28T06:14:59.602Z,8.30
2022-10-28T06:16:32.326Z,7.70
2022-10-28T06:18:05.256Z,7.83
2022-10-28T06:19:38.009Z,7.50
2022-10-28T06:21:10.906Z,8.00
2022-10-28T06:22:47.576Z,8.43
2022-10-28T06:24:20.369Z,8.03
2022-10-28T06:27:35.338Z,7.30
2022-10-28T06:29:10.160Z,7.50
2022-10-28T06:30:44.217Z,7.10
2022-10-28T06:32:16.913Z,7.07
2022-10-28T06:33:49.686Z,7.17
2022-10-28T06:35:23.021Z,7.10
2022-10-28T06:36:55.914Z,7.10
2022-10-28T06:38:29.177Z,7.07
2022-10-28T06:40:01.927Z,6.73
2022-10-28T06:41:34.898Z,7.07
2022-10-28T06:43:10.934Z,6.20
2022-10-28T06:44:43.802Z,6.60
2022-10-28T06:46:17.850Z,6.40
2022-10-28T06:47:56.390Z,6.30
2022-10-28T06:49:29.440Z,6.47
2022-10-28T06:51:02.166Z,6.53
2022-10-28T06:52:34.907Z,6.90
2022-10-28T06:54:07.932Z,7.47
2022-10-28T06:55:40.625Z,7.07
2022-10-28T06:57:13.357Z,7.20
2022-10-28T06:58:50.720Z,6.87
2022-10-28T07:00:23.481Z,7.60
2022-10-28T07:01:57.686Z,7.17
2022-10-28T07:03:30.426Z,6.90
2022-10-28T07:05:03.137Z,6.00
2022-10-28T07:06:35.855Z,6.63
2022-10-28T07:08:08.605Z,6.70
2022-10-28T07:09:43.023Z,6.53
2022-10-28T07:11:16.069Z,6.53
2022-10-28T07:12:48.786Z,6.27
2022-10-28T07:14:21.491Z,6.60
2022-10-28T07:15:54.910Z,5.97
2022-10-28T07:17:29.031Z,5.97
2022-10-28T07:19:01.770Z,6.03
2022-10-28T07:20:34.482Z,6.03
2022-10-28T07:22:07.239Z,6.17
2022-10-28T07:23:40.007Z,6.10
2022-10-28T07:25:12.755Z,6.60
2022-10-28T07:26:45.540Z,6.63
2022-10-28T07:28:18.236Z,6.20
2022-10-28T07:29:50.964Z,6.00
2022-10-28T07:31:23.754Z,6.37
2022-10-28T07:33:00.800Z,6.43
2022-10-28T07:34:33.559Z,6.70
2022-10-28T07:36:07.839Z,6.70
2022-10-28T07:37:40.758Z,6.53
2022-10-28T07:39:13.560Z,6.10
2022-10-28T07:40:46.311Z,6.60
2022-10-28T07:42:19.031Z,6.50
2022-10-28T07:43:51.899Z,6.30
2022-10-28T07:45:24.650Z,6.43
2022-10-28T07:46:58.326Z,6.30
2022-10-28T07:48:32.859Z,6.67
2022-10-28T07:50:07.506Z,6.50
2022-10-28T07:51:40.790Z,6.83
2022-10-28T07:53:13.486Z,6.53
2022-10-28T07:54:46.209Z,6.90
2022-10-28T07:56:20.419Z,6.20
2022-10-28T07:57:53.492Z,6.03
2022-10-28T07:59:27.060Z,6.30
2022-10-28T08:01:05.672Z,6.83
2022-10-28T08:02:39.056Z,6.80
2022-10-28T08:04:13.167Z,6.23
2022-10-28T08:05:46.151Z,7.17
2022-10-28T08:07:20.137Z,6.53
2022-10-28T08:08:55.811Z,6.47
2022-10-28T08:10:28.542Z,7.13
2022-10-28T08:12:01.259Z,7.50
2022-10-28T08:13:36.791Z,6.77
2022-10-28T08:15:14.447Z,6.87
2022-10-28T08:16:47.251Z,7.30
2022-10-28T08:18:19.965Z,7.00
2022-10-28T08:19:54.072Z,7.10
2022-10-28T08:21:27.074Z,6.67
2022-10-28T08:23:02.844Z,6.37
2022-10-28T08:24:40.495Z,6.53
2022-10-28T08:26:14.481Z,6.73
2022-10-28T08:27:47.202Z,6.63
2022-10-28T08:29:19.982Z,7.00
2022-10-28T08:31:08.332Z,7.00
2022-10-28T08:32:42.134Z,6.70
2022-10-28T08:34:14.929Z,7.30
2022-10-28T08:35:52.494Z,7.37
2022-10-28T08:37:25.330Z,6.90
2022-10-28T08:39:00.098Z,6.77
2022-10-28T08:40:42.266Z,6.73
2022-10-28T08:42:28.946Z,6.67
2022-10-28T08:44:25.427Z,5.87
2022-10-28T08:46:05.086Z,6.77
2022-10-28T08:47:48.123Z,5.93
2022-10-28T08:49:28.433Z,7.17
2022-10-28T08:51:07.240Z,7.10
2022-10-28T08:52:44.563Z,6.53
2022-10-28T08:54:22.379Z,5.87
2022-10-28T08:56:02.073Z,6.77
2022-10-28T08:57:39.909Z,6.30
2022-10-28T08:59:16.201Z,6.07
2022-10-28T09:00:53.621Z,6.10
2022-10-28T09:02:29.895Z,6.17
2022-10-28T09:04:06.560Z,6.03
2022-10-28T09:05:40.773Z,5.57
2022-10-28T09:07:19.165Z,5.90
2022-10-28T09:08:53.010Z,6.07
2022-10-28T09:10:47.689Z,5.80
2022-10-28T09:12:33.673Z,5.87
2022-10-28T09:14:20.457Z,5.40
2022-10-28T09:16:01.803Z,5.40
2022-10-28T09:17:41.731Z,5.97
2022-10-28T09:19:29.886Z,5.67
2022-10-28T09:21:07.077Z,5.00
2022-10-28T09:22:49.852Z,6.40
2022-10-28T09:24:30.811Z,5.47
2022-10-28T09:26:13.907Z,5.57
2022-10-28T09:27:59.807Z,5.73
2022-10-28T09:29:44.582Z,5.70
2022-10-28T09:31:28.746Z,5.50
2022-10-28T09:33:10.800Z,5.63
2022-10-28T09:34:47.898Z,5.30
2022-10-28T09:36:26.880Z,5.73
2022-10-28T09:38:10.503Z,5.57
2022-10-28T09:39:46.042Z,5.50
2022-10-28T09:41:21.717Z,5.57
2022-10-28T09:43:05.367Z,5.47
2022-10-28T09:44:45.148Z,5.40
2022-10-28T09:46:19.622Z,5.43
2022-10-28T09:47:57.913Z,5.40
2022-10-28T09:49:35.812Z,5.53
2022-10-28T09:51:20.561Z,5.20
2022-10-28T09:53:01.868Z,5.43
2022-10-28T09:54:40.700Z,5.40
2022-10-28T09:56:13.469Z,5.30
2022-10-28T09:57:46.204Z,5.00
2022-10-28T09:59:18.954Z,4.73
2022-10-28T10:00:52.550Z,4.90
2022-10-28T10:02:28.901Z,5.27
2022-10-28T10:04:02.183Z,4.80
2022-10-28T10:05:41.422Z,5.30
2022-10-28T10:07:25.631Z,4.93
2022-10-28T10:08:58.691Z,4.77
2022-10-28T10:10:37.058Z,5.27
2022-10-28T10:12:11.865Z,4.80
2022-10-28T10:13:44.858Z,4.87
2022-10-28T10:15:26.547Z,4.80
2022-10-28T10:17:04.271Z,5.03
2022-10-28T10:18:37.848Z,4.73
2022-10-28T10:20:13.205Z,5.03
2022-10-28T10:21:47.808Z,4.43
2022-10-28T10:23:28.661Z,4.90
2022-10-28T10:25:01.787Z,4.70
2022-10-28T10:26:37.256Z,4.90
2022-10-28T10:28:17.172Z,5.13
2022-10-28T10:29:52.697Z,4.83
2022-10-28T10:31:30.672Z,4.70
2022-10-28T10:33:04.335Z,4.77
2022-10-28T10:34:37.387Z,4.60
2022-10-28T10:36:18.062Z,4.40
2022-10-28T10:37:52.193Z,4.20
2022-10-28T10:39:29.936Z,4.40
2022-10-28T10:41:02.796Z,4.37
2022-10-28T10:42:42.685Z,4.87
2022-10-28T10:44:34.275Z,4.20
2022-10-28T10:46:14.888Z,4.73
2022-10-28T10:47:47.624Z,4.70
2022-10-28T10:49:20.345Z,4.30
2022-10-28T10:50:53.734Z,4.37
2022-10-28T10:52:28.127Z,4.20
2022-10-28T10:54:01.153Z,4.67
2022-10-28T10:55:37.405Z,4.23
2022-10-28T10:57:11.619Z,4.50
2022-10-28T10:58:52.507Z,4.50
2022-10-28T11:00:31.117Z,4.47
2022-10-28T11:02:05.134Z,4.13
2022-10-28T11:03:47.156Z,4.50
2022-10-28T11:05:27.336Z,3.73
2022-10-28T11:07:16.920Z,4.17
2022-10-28T11:08:49.782Z,4.10
2022-10-28T11:10:25.376Z,4.33
2022-10-28T11:11:58.433Z,4.10
2022-10-28T11:13:31.817Z,4.40
2022-10-28T11:15:22.383Z,4.70
2022-10-28T11:16:56.543Z,3.90
2022-10-28T11:18:31.624Z,4.30
2022-10-28T11:20:24.868Z,4.27
2022-10-28T11:22:13.396Z,4.20
2022-10-28T11:23:55.219Z,4.47
2022-10-28T11:25:36.066Z,4.17
2022-10-28T11:27:17.060Z,4.03
2022-10-28T11:29:08.291Z,4.17
2022-10-28T11:30:54.479Z,4.13
2022-10-28T11:32:54.758Z,4.37
2022-10-28T11:34:56.959Z,4.10
2022-10-28T11:36:35.659Z,4.40
2022-10-28T11:38:20.849Z,3.77
2022-10-28T11:40:04.904Z,4.40
2022-10-28T11:41:54.059Z,4.60
2022-10-28T11:43:33.807Z,4.43
2022-10-28T11:45:13.881Z,4.40
2022-10-28T11:47:02.425Z,4.10
2022-10-28T11:48:47.617Z,4.43
2022-10-28T11:50:39.689Z,4.23
2022-10-28T11:52:24.848Z,4.57
2022-10-28T11:54:25.517Z,4.57
2022-10-28T11:56:09.892Z,4.03
2022-10-28T11:57:58.503Z,4.50
2022-10-28T11:59:50.020Z,4.00
2022-10-28T12:01:45.608Z,4.10
2022-10-28T12:03:38.035Z,4.50
2022-10-28T12:05:18.313Z,4.17
2022-10-28T12:07:06.987Z,4.20
2022-10-28T12:08:55.452Z,4.60
2022-10-28T12:10:51.411Z,4.43
2022-10-28T12:12:31.627Z,4.07
2022-10-28T12:14:14.448Z,4.20
2022-10-28T12:15:55.823Z,4.63
2022-10-28T12:17:35.551Z,4.87
2022-10-28T12:19:16.077Z,4.40
2022-10-28T12:20:56.102Z,4.77
2022-10-28T12:22:34.936Z,4.80
2022-10-28T12:24:13.983Z,4.60
2022-10-28T12:25:50.688Z,4.43
2022-10-28T12:27:27.763Z,4.27
2022-10-28T12:29:04.720Z,4.77
2022-10-28T12:30:42.589Z,4.40
2022-10-28T12:32:25.386Z,4.83
2022-10-28T12:34:01.301Z,4.47
2022-10-28T12:35:39.166Z,4.67
2022-10-28T12:37:17.174Z,4.17
2022-10-28T12:38:56.412Z,4.67
2022-10-28T12:40:32.468Z,4.90
2022-10-28T12:42:13.635Z,4.30
2022-10-28T12:43:51.435Z,4.77
2022-10-28T12:45:25.014Z,4.50
2022-10-28T12:47:13.426Z,4.70
2022-10-28T12:48:51.669Z,4.93
2022-10-28T12:50:32.288Z,4.83
2022-10-28T12:52:15.580Z,4.60
2022-10-28T12:53:54.783Z,4.57
2022-10-28T12:55:34.286Z,5.03
2022-10-28T12:57:13.823Z,4.80
2022-10-28T12:58:52.473Z,4.40
2022-10-28T13:00:28.895Z,3.83
2022-10-28T13:02:03.323Z,4.27
2022-10-28T13:03:36.854Z,5.00
2022-10-28T13:05:19.665Z,4.37
2022-10-28T13:07:13.145Z,4.60
2022-10-28T13:09:12.289Z,4.80
2022-10-28T13:10:51.819Z,4.63
2022-10-28T13:12:43.166Z,4.73
2022-10-28T13:14:28.728Z,4.20
2022-10-28T13:16:18.833Z,4.13
2022-10-28T13:18:04.619Z,4.60
2022-10-28T13:19:51.378Z,4.63
2022-10-28T13:21:32.791Z,4.40
2022-10-28T13:23:18.427Z,4.30
2022-10-28T13:25:00.285Z,4.33
2022-10-28T13:26:35.684Z,4.40
2022-10-28T13:28:14.306Z,4.50
2022-10-28T13:29:53.364Z,4.10
2022-10-28T13:31:38.459Z,4.60
2022-10-28T13:33:17.542Z,3.90
2022-10-28T13:34:50.309Z,4.40
2022-10-28T13:36:29.269Z,4.50
2022-10-28T13:38:03.202Z,4.37
2022-10-28T13:39:46.305Z,4.70
2022-10-28T13:41:40.973Z,4.10
2022-10-28T13:43:20.789Z,4.50
2022-10-28T13:44:55.355Z,4.57
2022-10-28T13:47:06.619Z,4.53
2022-10-28T13:48:49.141Z,4.40
2022-10-28T13:50:42.967Z,4.13
2022-10-28T13:52:21.405Z,4.50
2022-10-28T13:53:57.491Z,4.27
2022-10-28T13:55:44.926Z,4.10
2022-10-28T13:57:25.521Z,4.10
2022-10-28T13:59:01.255Z,5.07
2022-10-28T14:00:38.534Z,4.57
2022-10-28T14:02:38.918Z,4.30
2022-10-28T14:04:22.760Z,4.70
2022-10-28T14:05:59.053Z,4.50
2022-10-28T14:07:34.160Z,4.43
2022-10-28T14:09:06.986Z,3.90
2022-10-28T14:10:41.711Z,4.43
2022-10-28T14:12:19.060Z,4.40
2022-10-28T14:13:54.231Z,4.73
2022-10-28T14:15:30.378Z,3.93
2022-10-28T14:17:02.252Z,4.10
2022-10-28T14:18:43.420Z,4.30
2022-10-28T14:20:30.525Z,4.27
2022-10-28T14:22:07.051Z,4.20
2022-10-28T14:24:09.763Z,4.27
2022-10-28T14:26:04.347Z,3.97
2022-10-28T14:27:43.844Z,4.60
2022-10-28T14:29:28.414Z,4.13
2022-10-28T14:31:24.559Z,4.17
2022-10-28T14:33:22.228Z,4.43
2022-10-28T14:34:56.330Z,4.23
2022-10-28T14:36:35.143Z,4.17
2022-10-28T14:38:36.407Z,4.20
2022-10-28T14:40:23.239Z,4.47
2022-10-28T14:42:15.166Z,5.10
2022-10-28T14:43:57.891Z,4.27
2022-10-28T14:45:41.423Z,4.50
2022-10-28T14:47:38.625Z,4.10
2022-10-28T14:49:19.938Z,4.07
2022-10-28T14:50:54.184Z,4.83
2022-10-28T14:52:27.392Z,4.47
2022-10-28T14:54:02.123Z,4.67
2022-10-28T14:55:37.361Z,4.30
2022-10-28T14:57:11.919Z,4.20
2022-10-28T14:58:45.943Z,4.23
2022-10-28T15:00:21.382Z,4.50
2022-10-28T15:02:02.149Z,4.60
2022-10-28T15:03:35.542Z,4.67
2022-10-28T15:05:17.028Z,5.20
2022-10-28T15:06:52.128Z,4.10
2022-10-28T15:08:25.584Z,4.17
2022-10-28T15:09:58.739Z,4.33
2022-10-28T15:11:32.333Z,4.87
2022-10-28T15:13:06.394Z,5.00
2022-10-28T15:14:41.320Z,5.10
2022-10-28T15:16:21.872Z,4.13
2022-10-28T15:17:55.184Z,4.60
2022-10-28T15:19:30.129Z,4.30
2022-10-28T15:21:10.411Z,4.73
2022-10-28T15:22:44.399Z,4.60
2022-10-28T15:24:17.103Z,4.00
2022-10-28T15:26:08.533Z,4.83
2022-10-28T15:27:42.742Z,4.40
2022-10-28T15:29:17.083Z,4.20
2022-10-28T15:30:49.819Z,4.43
2022-10-28T15:32:31.234Z,4.83
2022-10-28T15:34:03.033Z,4.00
2022-10-28T15:35:40.423Z,4.13
2022-10-28T15:37:18.655Z,4.60
2022-10-28T15:38:52.705Z,4.20
2022-10-28T15:40:30.583Z,4.03
2022-10-28T15:42:03.376Z,4.70
2022-10-28T15:43:36.252Z,5.07
2022-10-28T15:45:19.957Z,4.50
2022-10-28T15:46:53.550Z,4.60
2022-10-28T15:48:28.179Z,4.77
2022-10-28T15:50:04.887Z,4.63
2022-10-28T15:51:37.688Z,4.60
2022-10-28T15:53:37.612Z,4.10
2022-10-28T15:55:41.053Z,4.73
2022-10-28T15:57:23.067Z,4.30
2022-10-28T15:59:08.910Z,4.20
2022-10-28T16:00:52.615Z,4.40
2022-10-28T16:02:41.596Z,4.57
2022-10-28T16:04:42.152Z,4.30
2022-10-28T16:06:24.546Z,4.17
2022-10-28T16:07:57.556Z,4.07
2022-10-28T16:09:32.619Z,4.33
2022-10-28T16:11:13.968Z,4.53
2022-10-28T16:12:46.862Z,4.30
2022-10-28T16:14:35.747Z,4.53
2022-10-28T16:16:12.875Z,4.20
2022-10-28T16:17:45.676Z,4.43
2022-10-28T16:19:28.554Z,4.00
2022-10-28T16:21:01.907Z,4.00
2022-10-28T16:22:37.240Z,4.47
2022-10-28T16:24:11.460Z,4.27
2022-10-28T16:25:43.342Z,3.80
2022-10-28T16:27:17.939Z,4.00
2022-10-28T16:28:50.678Z,3.70
2022-10-28T16:32:02.375Z,4.00
2022-10-28T16:33:38.167Z,4.43
2022-10-28T16:35:15.753Z,4.40
2022-10-28T16:36:48.459Z,3.87
2022-10-28T16:38:21.307Z,4.40
2022-10-28T16:39:54.269Z,3.77
2022-10-28T16:41:27.004Z,4.07
2022-10-28T16:42:59.407Z,3.93
2022-10-28T16:44:32.126Z,4.43
2022-10-28T16:46:04.854Z,3.90
2022-10-28T16:47:38.920Z,4.50
2022-10-28T16:49:11.638Z,4.40
2022-10-28T16:50:45.837Z,4.13
2022-10-28T16:52:20.976Z,4.13
2022-10-28T16:53:53.715Z,3.90
2022-10-28T16:55:27.447Z,4.03
2022-10-28T16:57:00.179Z,3.90
2022-10-28T16:58:34.951Z,3.93
2022-10-28T17:00:10.347Z,3.80
2022-10-28T17:01:43.196Z,4.10
2022-10-28T17:03:17.309Z,3.80
2022-10-28T17:04:49.071Z,3.67
2022-10-28T17:06:21.787Z,4.13
2022-10-28T17:07:56.073Z,4.23
2022-10-28T17:09:29.189Z,4.37
2022-10-28T17:11:02.033Z,3.97
2022-10-28T17:12:34.781Z,3.70
2022-10-28T17:14:07.515Z,3.83
2022-10-28T17:15:40.578Z,4.00
2022-10-28T17:17:13.507Z,3.97
2022-10-28T17:18:50.128Z,3.93
2022-10-28T17:20:22.822Z,4.03
2022-10-28T17:21:55.540Z,4.20
2022-10-28T17:23:28.370Z,3.83
2022-10-28T17:25:01.145Z,3.63
2022-10-28T17:26:33.903Z,4.30
2022-10-28T17:28:06.641Z,4.10
2022-10-28T17:29:39.642Z,4.40
2022-10-28T17:31:12.406Z,4.53
2022-10-28T17:32:45.654Z,4.47
2022-10-28T17:34:19.864Z,4.60
2022-10-28T17:35:52.566Z,4.27
2022-10-28T17:37:25.312Z,4.40
2022-10-28T17:38:58.059Z,4.30
2022-10-28T17:40:31.994Z,4.13
2022-10-28T17:42:05.002Z,4.37
2022-10-28T17:43:37.711Z,4.07
2022-10-28T17:45:11.465Z,4.07
2022-10-28T17:46:43.267Z,4.03
2022-10-28T17:48:16.057Z,4.17
2022-10-28T17:49:50.131Z,4.23
2022-10-28T17:51:24.960Z,4.30
2022-10-28T17:52:58.049Z,3.97
2022-10-28T17:54:30.900Z,3.70
2022-10-28T17:56:06.015Z,4.13
2022-10-28T17:57:38.784Z,3.97
2022-10-28T17:59:11.642Z,4.10
2022-10-28T18:00:45.472Z,4.33
2022-10-28T18:02:18.286Z,4.83
2022-10-28T18:03:51.617Z,3.83
2022-10-28T18:05:25.743Z,4.37
2022-10-28T18:06:59.302Z,4.80
2022-10-28T18:08:33.298Z,4.70
2022-10-28T18:10:06.792Z,4.50
2022-10-28T18:11:39.785Z,4.20
2022-10-28T18:13:12.508Z,3.80
2022-10-28T18:14:45.231Z,4.63
2022-10-28T18:16:19.487Z,4.57
2022-10-28T18:17:52.206Z,4.30
2022-10-28T18:19:25.269Z,4.10
2022-10-28T18:20:59.434Z,4.30
2022-10-28T18:22:32.146Z,4.00
2022-10-28T18:24:05.405Z,4.00
2022-10-28T18:25:38.371Z,4.33
2022-10-28T18:27:11.108Z,4.03
2022-10-28T18:28:45.610Z,4.53
2022-10-28T18:30:18.451Z,3.90
2022-10-28T18:31:51.212Z,4.40
2022-10-28T18:33:23.966Z,4.13
2022-10-28T18:34:56.760Z,4.47
2022-10-28T18:36:34.130Z,4.23
2022-10-28T18:38:07.126Z,4.20
2022-10-28T18:39:39.844Z,4.23
2022-10-28T18:41:13.839Z,4.20
2022-10-28T18:42:46.554Z,4.73
2022-10-28T18:44:21.524Z,4.10
2022-10-28T18:45:54.317Z,4.03
2022-10-28T18:47:27.060Z,4.90
2022-10-28T18:50:33.507Z,4.07
2022-10-28T18:52:07.641Z,4.70
2022-10-28T18:53:42.305Z,4.37
2022-10-28T18:55:15.204Z,4.33
2022-10-28T18:56:49.113Z,4.77
2022-10-28T18:58:25.787Z,4.33
2022-10-28T19:00:17.452Z,3.97
2022-10-28T19:01:51.293Z,4.30
2022-10-28T19:03:24.476Z,4.83
2022-10-28T19:04:57.982Z,4.40
2022-10-28T19:06:33.117Z,4.37
2022-10-28T19:08:07.359Z,4.47
2022-10-28T19:09:40.112Z,4.30
2022-10-28T19:11:14.324Z,4.20
2022-10-28T19:12:52.791Z,4.13
2022-10-28T19:14:25.866Z,3.97
2022-10-28T19:15:59.421Z,3.90
2022-10-28T19:17:32.223Z,4.03
2022-10-28T19:19:06.498Z,4.37
2022-10-28T19:20:38.271Z,4.40
2022-10-28T19:22:12.500Z,4.63
2022-10-28T19:23:46.551Z,4.23
2022-10-28T19:25:19.271Z,4.67
2022-10-28T19:26:52.015Z,4.70
2022-10-28T19:28:25.136Z,4.67
2022-10-28T19:30:00.640Z,4.67
2022-10-28T19:31:36.675Z,4.50
2022-10-28T19:33:09.411Z,5.10
2022-10-28T19:34:42.172Z,4.40
2022-10-28T19:36:18.482Z,5.27
2022-10-28T19:37:53.381Z,5.03
2022-10-28T19:39:28.733Z,4.70
2022-10-28T19:41:08.645Z,4.63
2022-10-28T19:42:41.458Z,6.10
2022-10-28T19:44:14.231Z,5.50
2022-10-28T19:45:46.954Z,5.20
2022-10-28T19:47:19.684Z,4.70
2022-10-28T19:48:54.448Z,4.53
2022-10-28T19:50:27.176Z,5.23
2022-10-28T19:51:59.912Z,5.67
2022-10-28T19:53:32.636Z,5.03
2022-10-28T19:55:10.938Z,4.97
2022-10-28T19:56:47.824Z,4.90
2022-10-28T19:58:20.522Z,5.27
2022-10-28T19:59:53.240Z,5.30
2022-10-28T20:01:27.815Z,5.17
2022-10-28T20:03:00.625Z,4.93
2022-10-28T20:04:33.338Z,5.23
2022-10-28T20:06:07.995Z,4.90
2022-10-28T20:07:40.699Z,5.50
2022-10-28T20:09:13.442Z,5.33
2022-10-28T20:10:58.166Z,4.77
2022-10-28T20:12:30.912Z,5.40
2022-10-28T20:14:08.246Z,5.30
2022-10-28T20:15:41.009Z,5.53
2022-10-28T20:17:15.210Z,4.93
2022-10-28T20:18:47.982Z,5.23
2022-10-28T20:20:20.704Z,4.97
2022-10-28T20:21:53.420Z,5.23
2022-10-28T20:23:26.240Z,5.40
2022-10-28T20:24:58.963Z,5.40
2022-10-28T20:26:35.962Z,5.53
2022-10-28T20:28:08.677Z,5.57
2022-10-28T20:29:41.374Z,5.47
2022-10-28T20:31:16.058Z,5.73
2022-10-28T20:32:53.288Z,5.40
2022-10-28T20:34:28.275Z,5.30
2022-10-28T20:36:01.009Z,5.50
2022-10-28T20:37:33.744Z,5.43
2022-10-28T20:39:12.187Z,5.57
2022-10-28T20:40:48.250Z,5.40
2022-10-28T20:42:22.326Z,5.30
2022-10-28T20:43:55.753Z,6.00
2022-10-28T20:45:28.509Z,5.30
2022-10-28T20:47:01.241Z,5.93
2022-10-28T20:48:34.246Z,5.77
2022-10-28T20:50:07.878Z,5.47
2022-10-28T20:51:41.315Z,5.93
2022-10-28T20:53:14.158Z,5.13
2022-10-28T20:54:46.911Z,5.10
2022-10-28T20:56:21.366Z,5.50
2022-10-28T20:57:55.435Z,5.67
2022-10-28T20:59:28.160Z,5.53
2022-10-28T21:01:04.166Z,5.37
2022-10-28T21:02:37.117Z,5.60
2022-10-28T21:04:11.912Z,5.77
2022-10-28T21:05:44.929Z,6.17
2022-10-28T21:07:17.656Z,5.40
2022-10-28T21:08:50.418Z,5.23
2022-10-28T21:10:23.661Z,5.93
2022-10-28T21:11:56.383Z,5.77
2022-10-28T21:13:30.494Z,5.73
2022-10-28T21:15:03.372Z,5.70
2022-10-28T21:16:36.084Z,6.13
2022-10-28T21:18:09.487Z,5.50
2022-10-28T21:19:42.200Z,9.10